createdAt,value
2023-01-18T00:01:36.374Z,3.30
2023-01-18T00:04:03.903Z,2.55
2023-01-18T00:06:31.573Z,2.95
2023-01-18T00:08:59.017Z,4.50
2023-01-18T00:11:34.028Z,5.07
2023-01-18T00:14:03.096Z,6.05
2023-01-18T00:16:30.692Z,5.00
2023-01-18T00:18:58.642Z,4.13
2023-01-18T00:21:27.123Z,5.18
2023-01-18T00:23:55.772Z,5.00
2023-01-18T00:26:28.888Z,4.28
2023-01-18T00:28:57.506Z,5.13
2023-01-18T00:31:28.160Z,5.43
2023-01-18T00:34:00.616Z,5.00
2023-01-18T00:36:28.499Z,4.10
2023-01-18T00:38:56.083Z,4.72
2023-01-18T00:41:23.646Z,4.50
2023-01-18T00:43:51.815Z,4.38
2023-01-18T00:46:20.587Z,4.55
2023-01-18T00:48:48.704Z,5.10
2023-01-18T00:51:28.258Z,9.20
2023-01-18T00:53:55.844Z,4.13
2023-01-18T00:56:25.677Z,4.13
2023-01-18T00:58:53.171Z,4.78
2023-01-18T01:01:20.762Z,5.20
2023-01-18T01:04:06.867Z,4.25
2023-01-18T01:06:45.498Z,4.05
2023-01-18T01:09:14.170Z,4.13
2023-01-18T01:12:01.612Z,3.80
2023-01-18T01:14:48.989Z,2.45
2023-01-18T01:17:34.890Z,4.10
2023-01-18T01:20:22.837Z,3.90
2023-01-18T01:23:10.690Z,9.40
2023-01-18T01:25:56.719Z,13.98
2023-01-18T01:28:24.284Z,17.20
2023-01-18T01:30:51.889Z,16.38
2023-01-18T01:33:19.717Z,10.68
2023-01-18T01:35:47.243Z,14.70
2023-01-18T01:38:14.885Z,16.15
2023-01-18T01:40:42.578Z,16.98
2023-01-18T01:43:12.784Z,13.48
2023-01-18T01:45:40.279Z,16.65
2023-01-18T01:48:10.003Z,15.55
2023-01-18T01:50:38.171Z,17.25
2023-01-18T01:53:05.640Z,17.27
2023-01-18T01:55:33.993Z,18.50
2023-01-18T01:58:01.731Z,15.73
2023-01-18T02:00:29.246Z,12.00
2023-01-18T02:03:05.489Z,8.48
2023-01-18T02:05:33.193Z,10.00
2023-01-18T02:08:01.037Z,13.10
2023-01-18T02:10:29.167Z,14.43
2023-01-18T02:12:57.329Z,15.75
2023-01-18T02:15:26.457Z,16.63
2023-01-18T02:18:12.616Z,11.52
2023-01-18T02:20:40.131Z,7.57
2023-01-18T02:23:07.721Z,9.43
2023-01-18T02:25:47.812Z,8.48
2023-01-18T02:28:15.984Z,6.07
2023-01-18T02:30:44.810Z,5.00
2023-01-18T02:33:29.755Z,3.42
2023-01-18T02:35:57.646Z,5.10
2023-01-18T02:38:27.342Z,3.72
2023-01-18T02:41:00.344Z,3.33
2023-01-18T02:43:46.858Z,3.67
2023-01-18T02:46:34.252Z,3.35
2023-01-18T02:49:02.428Z,2.85
2023-01-18T02:51:30.916Z,2.40
2023-01-18T02:53:58.402Z,2.30
2023-01-18T02:56:34.929Z,2.20
2023-01-18T02:59:06.973Z,1.70
2023-01-18T03:01:56.901Z,1.60
2023-01-18T03:04:32.004Z,1.80
2023-01-18T03:07:19.855Z,2.15
2023-01-18T03:09:47.291Z,1.73
2023-01-18T03:12:46.371Z,2.35
2023-01-18T03:15:32.304Z,2.55
2023-01-18T03:18:12.334Z,1.42
2023-01-18T03:20:42.417Z,1.10
2023-01-18T03:23:28.628Z,2.00
2023-01-18T03:25:57.076Z,1.67
2023-01-18T03:28:46.640Z,1.23
2023-01-18T03:31:33.137Z,1.30
2023-01-18T03:34:05.691Z,1.73
2023-01-18T03:36:33.875Z,1.60
2023-01-18T03:39:11.707Z,1.45
2023-01-18T03:41:40.374Z,0.80
2023-01-18T03:44:08.890Z,0.77
2023-01-18T03:46:36.580Z,1.40
2023-01-18T03:49:04.134Z,0.65
2023-01-18T03:51:38.466Z,1.23
2023-01-18T03:54:13.439Z,0.77
2023-01-18T03:56:51.975Z,1.08
2023-01-18T03:59:21.481Z,1.60
2023-01-18T04:04:16.740Z,1.50
2023-01-18T04:06:44.209Z,1.75
2023-01-18T04:09:12.163Z,1.70
2023-01-18T04:11:39.713Z,2.05
2023-01-18T04:14:07.222Z,2.58
2023-01-18T04:16:34.901Z,3.17
2023-01-18T04:19:02.655Z,3.92
2023-01-18T04:21:30.460Z,2.92
2023-01-18T04:23:57.939Z,2.35
2023-01-18T04:26:25.489Z,3.33
2023-01-18T04:28:53.119Z,3.28
2023-01-18T04:31:20.774Z,3.28
2023-01-18T04:33:51.812Z,3.45
2023-01-18T04:36:20.357Z,5.32
2023-01-18T04:38:48.078Z,3.30
2023-01-18T04:41:15.508Z,3.85
2023-01-18T04:43:43.056Z,4.50
2023-01-18T04:46:10.618Z,3.55
2023-01-18T04:48:39.393Z,4.22
2023-01-18T04:51:07.106Z,5.47
2023-01-18T04:53:35.777Z,4.68
2023-01-18T04:56:03.688Z,4.60
2023-01-18T04:58:31.492Z,4.32
2023-01-18T05:01:02.157Z,3.65
2023-01-18T05:03:30.815Z,2.90
2023-01-18T05:05:58.570Z,3.87
2023-01-18T05:08:26.136Z,8.82
2023-01-18T05:10:53.611Z,24.02
2023-01-18T05:13:21.494Z,21.63
2023-01-18T05:15:49.110Z,25.20
2023-01-18T05:18:16.627Z,23.83
2023-01-18T05:20:44.987Z,15.55
2023-01-18T05:23:14.695Z,15.85
2023-01-18T05:25:42.266Z,21.45
2023-01-18T05:28:09.888Z,25.83
2023-01-18T05:30:41.668Z,24.52
2023-01-18T05:33:09.511Z,38.35
2023-01-18T05:35:37.081Z,42.63
2023-01-18T05:38:04.839Z,43.92
2023-01-18T05:40:32.325Z,35.88
2023-01-18T05:43:00.203Z,28.55
2023-01-18T05:45:28.037Z,20.63
2023-01-18T05:47:55.642Z,11.25
2023-01-18T05:50:23.270Z,4.18
2023-01-18T05:52:50.858Z,3.05
2023-01-18T05:55:19.389Z,3.40
2023-01-18T05:57:47.735Z,2.90
2023-01-18T06:00:15.502Z,2.75
2023-01-18T06:02:42.965Z,3.20
2023-01-18T06:05:10.517Z,3.38
2023-01-18T06:07:38.071Z,5.22
2023-01-18T06:10:06.941Z,4.50
2023-01-18T06:12:34.732Z,3.47
2023-01-18T06:15:02.374Z,2.60
2023-01-18T06:17:31.713Z,3.33
2023-01-18T06:19:59.965Z,4.10
2023-01-18T06:22:27.513Z,3.63
2023-01-18T06:24:55.507Z,4.93
2023-01-18T06:27:23.232Z,4.00
2023-01-18T06:29:50.828Z,8.00
2023-01-18T06:32:18.480Z,12.10
2023-01-18T06:34:46.314Z,8.65
2023-01-18T06:37:14.857Z,10.73
2023-01-18T06:39:42.494Z,10.07
2023-01-18T06:42:10.249Z,10.57
2023-01-18T06:44:41.276Z,7.30
2023-01-18T06:47:09.696Z,7.43
2023-01-18T06:49:37.485Z,5.20
2023-01-18T06:52:05.490Z,4.50
2023-01-18T06:54:43.438Z,4.05
2023-01-18T06:57:11.495Z,3.78
2023-01-18T06:59:42.348Z,4.68
2023-01-18T07:02:10.813Z,5.72
2023-01-18T07:04:44.268Z,5.65
2023-01-18T07:07:12.500Z,5.20
2023-01-18T07:09:39.997Z,7.30
2023-01-18T07:12:07.789Z,9.38
2023-01-18T07:14:35.260Z,10.52
2023-01-18T07:17:02.839Z,10.35
2023-01-18T07:19:30.427Z,10.30
2023-01-18T07:21:59.011Z,10.68
2023-01-18T07:24:26.679Z,8.70
2023-01-18T07:26:56.828Z,11.15
2023-01-18T07:29:24.400Z,9.00
2023-01-18T07:31:51.923Z,6.15
2023-01-18T07:34:19.474Z,3.95
2023-01-18T07:36:46.967Z,4.57
2023-01-18T07:39:14.644Z,4.57
2023-01-18T07:41:42.419Z,5.15
2023-01-18T07:44:10.895Z,5.45
2023-01-18T07:46:38.782Z,5.72
2023-01-18T07:49:06.686Z,6.82
2023-01-18T07:51:35.290Z,5.70
2023-01-18T07:54:02.935Z,6.43
2023-01-18T07:56:37.926Z,6.90
2023-01-18T07:59:06.228Z,9.23
2023-01-18T08:01:33.909Z,7.65
2023-01-18T08:04:01.645Z,8.38
2023-01-18T08:06:29.210Z,9.63
2023-01-18T08:09:02.482Z,10.18
2023-01-18T08:11:29.964Z,12.63
2023-01-18T08:13:57.746Z,10.60
2023-01-18T08:16:27.025Z,8.15
2023-01-18T08:18:54.663Z,7.70
2023-01-18T08:21:22.531Z,10.75
2023-01-18T08:23:51.410Z,12.35
2023-01-18T08:26:19.022Z,9.70
2023-01-18T08:28:46.746Z,12.40
2023-01-18T08:31:20.328Z,9.98
2023-01-18T08:33:49.234Z,10.73
2023-01-18T08:36:17.579Z,10.27
2023-01-18T08:38:48.560Z,10.02
2023-01-18T08:41:16.170Z,11.43
2023-01-18T08:43:46.136Z,11.32
2023-01-18T08:46:13.951Z,10.93
2023-01-18T08:48:42.138Z,11.70
2023-01-18T08:51:09.877Z,13.05
2023-01-18T08:53:37.425Z,13.27
2023-01-18T08:56:06.598Z,13.77
2023-01-18T08:58:34.288Z,15.05
2023-01-18T09:01:05.262Z,13.85
2023-01-18T09:03:32.890Z,13.82
2023-01-18T09:06:01.107Z,13.23
2023-01-18T09:08:28.731Z,10.98
2023-01-18T09:10:56.283Z,10.15
2023-01-18T09:13:26.347Z,10.15
2023-01-18T09:16:03.582Z,11.30
2023-01-18T09:18:32.148Z,9.30
2023-01-18T09:23:27.430Z,11.43
2023-01-18T09:26:04.145Z,12.90
2023-01-18T09:28:31.718Z,12.57
2023-01-18T09:31:03.066Z,13.50
2023-01-18T09:33:37.632Z,10.98
2023-01-18T09:36:07.296Z,10.18
2023-01-18T09:38:36.667Z,10.07
2023-01-18T09:41:05.487Z,12.48
2023-01-18T09:43:40.044Z,11.80
2023-01-18T09:46:25.839Z,8.60
2023-01-18T09:48:56.206Z,8.93
2023-01-18T09:51:25.100Z,10.60
2023-01-18T09:53:58.993Z,10.15
2023-01-18T09:56:27.858Z,6.47
2023-01-18T09:59:07.465Z,6.15
2023-01-18T10:01:36.236Z,7.15
2023-01-18T10:04:05.368Z,8.18
2023-01-18T10:06:45.080Z,6.35
2023-01-18T10:09:23.135Z,6.72
2023-01-18T10:11:59.686Z,6.88
2023-01-18T10:14:35.914Z,7.63
2023-01-18T10:17:04.789Z,4.20
2023-01-18T10:19:32.721Z,7.10
2023-01-18T10:22:03.907Z,6.83
2023-01-18T10:24:45.468Z,7.18
2023-01-18T10:27:19.219Z,7.25
2023-01-18T10:29:53.011Z,8.65
2023-01-18T10:32:21.613Z,6.55
2023-01-18T10:34:49.835Z,6.90
2023-01-18T10:37:20.493Z,8.20
2023-01-18T10:39:49.140Z,6.63
2023-01-18T10:42:19.639Z,3.95
2023-01-18T10:44:48.094Z,3.42
2023-01-18T10:47:18.050Z,3.72
2023-01-18T10:49:46.054Z,2.22
2023-01-18T10:52:27.340Z,3.60
2023-01-18T10:54:59.892Z,3.30
2023-01-18T10:57:29.451Z,3.25
2023-01-18T10:59:59.135Z,3.40
2023-01-18T11:02:30.865Z,4.03
2023-01-18T11:04:59.571Z,5.03
2023-01-18T11:07:27.477Z,3.40
2023-01-18T11:09:56.211Z,3.75
2023-01-18T11:12:38.974Z,2.50
2023-01-18T11:15:19.180Z,2.50
2023-01-18T11:17:47.081Z,2.67
2023-01-18T11:20:19.333Z,2.42
2023-01-18T11:23:03.471Z,3.13
2023-01-18T11:25:38.277Z,3.22
2023-01-18T11:28:07.665Z,3.28
2023-01-18T11:30:35.117Z,5.40
2023-01-18T11:33:03.169Z,4.07
2023-01-18T11:35:37.448Z,3.67
2023-01-18T11:38:09.104Z,4.80
2023-01-18T11:40:36.833Z,3.40
2023-01-18T11:43:23.832Z,2.20
2023-01-18T11:45:55.386Z,3.45
2023-01-18T11:48:30.405Z,2.03
2023-01-18T11:51:11.117Z,2.65
2023-01-18T11:53:59.228Z,1.90
2023-01-18T11:56:35.531Z,3.13
2023-01-18T11:59:05.381Z,4.00
2023-01-18T12:01:43.629Z,3.10
2023-01-18T12:04:31.803Z,2.80
2023-01-18T12:07:17.836Z,2.00
2023-01-18T12:09:51.555Z,3.70
2023-01-18T12:12:21.992Z,5.43
2023-01-18T12:15:08.430Z,2.58
2023-01-18T12:17:58.639Z,2.00
2023-01-18T12:20:44.055Z,3.05
2023-01-18T12:23:19.744Z,2.55
2023-01-18T12:26:12.105Z,3.47
2023-01-18T12:29:09.216Z,2.70
2023-01-18T12:31:58.229Z,2.92
2023-01-18T12:34:31.870Z,2.42
2023-01-18T12:37:18.123Z,1.98
2023-01-18T12:39:58.972Z,1.83
2023-01-18T12:42:44.843Z,3.17
2023-01-18T12:45:20.787Z,2.83
2023-01-18T12:48:11.784Z,3.35
2023-01-18T12:50:48.857Z,3.22
2023-01-18T12:53:36.460Z,2.78
2023-01-18T12:56:10.407Z,2.67
2023-01-18T12:58:40.374Z,1.88
2023-01-18T13:01:08.570Z,3.17
2023-01-18T13:03:40.504Z,2.00
2023-01-18T13:06:09.466Z,3.88
2023-01-18T13:16:48.016Z,2.55
2023-01-18T13:19:18.469Z,2.42
2023-01-18T13:21:50.422Z,2.90
2023-01-18T13:28:03.198Z,4.20
2023-01-18T13:30:32.055Z,4.13
2023-01-18T13:33:00.185Z,3.28
2023-01-18T13:35:33.453Z,3.07
2023-01-18T13:38:02.583Z,5.57
2023-01-18T13:40:43.002Z,5.50
2023-01-18T13:43:29.760Z,3.75
2023-01-18T13:46:21.087Z,3.65
2023-01-18T13:48:54.857Z,4.20
2023-01-18T13:51:38.507Z,3.58
2023-01-18T13:57:42.603Z,2.80
2023-01-18T14:00:22.225Z,2.33
2023-01-18T14:02:52.140Z,3.20
2023-01-18T14:05:20.216Z,4.07
2023-01-18T14:07:48.791Z,3.42
2023-01-18T14:10:33.421Z,2.60
2023-01-18T14:13:02.554Z,3.72
2023-01-18T14:15:48.465Z,3.97
2023-01-18T14:18:22.825Z,4.20
2023-01-18T14:20:56.336Z,5.07
2023-01-18T14:23:25.257Z,3.83
2023-01-18T14:25:59.578Z,6.97
2023-01-18T14:28:36.207Z,4.63
2023-01-18T14:31:04.143Z,2.30
2023-01-18T14:33:36.978Z,3.40
2023-01-18T14:36:05.929Z,8.00
2023-01-18T14:38:34.975Z,6.30
2023-01-18T14:41:06.008Z,6.43
2023-01-18T14:43:43.398Z,8.38
2023-01-18T14:46:11.116Z,8.18
2023-01-18T14:48:44.254Z,8.80
2023-01-18T14:51:11.723Z,8.80
2023-01-18T14:53:46.171Z,8.50
2023-01-18T14:56:17.826Z,9.30
2023-01-18T14:58:55.465Z,8.35
2023-01-18T15:01:33.248Z,7.78
2023-01-18T15:04:01.885Z,9.43
2023-01-18T15:06:42.854Z,8.48
2023-01-18T15:09:10.420Z,10.77
2023-01-18T15:11:38.168Z,9.15
2023-01-18T15:14:08.285Z,9.63
2023-01-18T15:16:36.095Z,10.32
2023-01-18T15:19:06.201Z,10.77
2023-01-18T15:21:34.951Z,11.05
2023-01-18T15:24:04.195Z,12.85
2023-01-18T15:26:42.000Z,12.68
2023-01-18T15:29:14.127Z,33.58
2023-01-18T15:31:54.781Z,56.20
2023-01-18T15:34:24.899Z,47.97
2023-01-18T15:36:52.382Z,44.22
2023-01-18T15:39:20.269Z,50.83
2023-01-18T15:41:47.898Z,41.03
2023-01-18T15:44:33.779Z,38.88
2023-01-18T15:47:01.369Z,34.95
2023-01-18T15:49:28.900Z,35.00
2023-01-18T15:51:59.463Z,42.50
2023-01-18T15:54:28.263Z,38.78
2023-01-18T15:57:16.065Z,49.15
2023-01-18T15:59:43.620Z,55.00
2023-01-18T16:02:20.858Z,61.45
2023-01-18T16:04:48.596Z,49.10
2023-01-18T16:07:29.155Z,70.22
2023-01-18T16:10:15.581Z,100.25
2023-01-18T16:12:43.341Z,102.68
2023-01-18T16:15:27.245Z,101.15
2023-01-18T16:18:02.478Z,105.40
2023-01-18T16:20:31.588Z,102.20
2023-01-18T16:23:15.799Z,99.68
2023-01-18T16:26:18.227Z,104.38
2023-01-18T16:28:46.532Z,98.47
2023-01-18T16:31:18.482Z,110.82
2023-01-18T16:33:55.864Z,103.15
2023-01-18T16:36:55.614Z,83.75
2023-01-18T16:40:02.829Z,87.88
2023-01-18T16:42:38.585Z,72.80
2023-01-18T16:45:07.023Z,47.75
2023-01-18T16:47:35.263Z,40.88
2023-01-18T16:50:05.119Z,74.25
2023-01-18T16:52:32.763Z,54.58
2023-01-18T16:55:00.237Z,65.32
2023-01-18T16:57:29.903Z,46.60
2023-01-18T17:00:00.419Z,18.33
2023-01-18T17:02:28.029Z,18.05
2023-01-18T17:04:55.747Z,16.90
2023-01-18T17:07:23.674Z,11.15
2023-01-18T17:09:53.422Z,24.50
2023-01-18T17:12:21.123Z,24.50
2023-01-18T17:14:52.336Z,56.90
2023-01-18T17:17:22.999Z,58.88
2023-01-18T17:19:51.817Z,59.20
2023-01-18T17:22:19.728Z,51.00
2023-01-18T17:24:49.375Z,61.22
2023-01-18T17:27:20.024Z,70.25
2023-01-18T17:29:47.973Z,77.70
2023-01-18T17:32:16.782Z,79.88
2023-01-18T17:34:44.401Z,35.70
2023-01-18T17:37:12.378Z,53.28
2023-01-18T17:39:49.701Z,48.08
2023-01-18T17:42:25.849Z,21.67
2023-01-18T17:47:31.760Z,20.80
2023-01-18T17:49:59.315Z,23.17
2023-01-18T17:52:27.610Z,10.57
2023-01-18T17:54:55.432Z,19.17
2023-01-18T17:57:23.072Z,14.60
2023-01-18T17:59:53.093Z,6.82
2023-01-18T18:02:20.790Z,4.63
2023-01-18T18:04:48.415Z,5.18
2023-01-18T18:07:15.891Z,7.93
2023-01-18T18:09:43.459Z,7.75
2023-01-18T18:12:11.269Z,7.20
2023-01-18T18:14:40.376Z,7.32
2023-01-18T18:17:07.919Z,8.10
2023-01-18T18:19:35.725Z,8.13
2023-01-18T18:22:03.509Z,8.52
2023-01-18T18:24:31.177Z,6.18
2023-01-18T18:27:02.011Z,6.03
2023-01-18T18:29:29.713Z,7.85
2023-01-18T18:31:57.956Z,7.55
2023-01-18T18:34:37.791Z,8.05
2023-01-18T18:37:05.544Z,7.43
2023-01-18T18:39:33.577Z,8.13
2023-01-18T18:42:01.072Z,3.45
2023-01-18T18:44:28.760Z,3.97
2023-01-18T18:46:56.304Z,4.78
2023-01-18T18:49:24.052Z,6.50
2023-01-18T18:51:51.675Z,7.25
2023-01-18T18:54:19.190Z,6.50
2023-01-18T18:56:56.560Z,8.00
2023-01-18T18:59:24.080Z,10.05
2023-01-18T19:01:52.007Z,12.32
2023-01-18T19:04:19.819Z,16.10
2023-01-18T19:06:47.365Z,13.50
2023-01-18T19:09:14.900Z,10.98
2023-01-18T19:11:50.600Z,17.13
2023-01-18T19:14:22.203Z,19.00
2023-01-18T19:16:49.759Z,17.63
2023-01-18T19:19:17.470Z,18.15
2023-01-18T19:21:45.067Z,19.27
2023-01-18T19:24:12.635Z,14.32
2023-01-18T19:26:40.377Z,10.57
2023-01-18T19:29:07.880Z,6.63
2023-01-18T19:31:35.483Z,7.03
2023-01-18T19:34:03.195Z,9.77
2023-01-18T19:36:31.146Z,10.25
2023-01-18T19:39:00.136Z,8.25
2023-01-18T19:41:30.254Z,9.82
2023-01-18T19:43:57.847Z,10.68
2023-01-18T19:46:25.628Z,8.23
2023-01-18T19:48:57.252Z,7.78
2023-01-18T19:51:24.755Z,8.98
2023-01-18T19:53:55.367Z,13.80
2023-01-18T19:56:24.526Z,12.32
2023-01-18T19:58:52.078Z,11.05
2023-01-18T20:01:34.713Z,5.85
2023-01-18T20:04:04.448Z,5.28
2023-01-18T20:06:31.894Z,5.18
2023-01-18T20:08:59.429Z,7.00
2023-01-18T20:11:26.898Z,7.00
2023-01-18T20:13:54.560Z,6.15
2023-01-18T20:16:22.563Z,8.23
2023-01-18T20:18:50.282Z,5.72
2023-01-18T20:21:19.450Z,5.68
2023-01-18T20:23:46.962Z,4.07
2023-01-18T20:26:16.571Z,4.78
2023-01-18T20:28:48.459Z,3.00
2023-01-18T20:31:15.964Z,3.65
2023-01-18T20:33:43.542Z,2.58
2023-01-18T20:36:11.335Z,3.10
2023-01-18T20:38:38.797Z,4.32
2023-01-18T20:41:07.317Z,4.65
2023-01-18T20:43:34.894Z,6.03
2023-01-18T20:46:03.286Z,4.53
2023-01-18T20:48:30.931Z,4.45
2023-01-18T20:50:59.581Z,5.55
2023-01-18T20:53:27.703Z,7.93
2023-01-18T20:55:55.800Z,7.40
2023-01-18T20:58:23.438Z,6.80
2023-01-18T21:00:51.229Z,6.40
2023-01-18T21:03:19.685Z,7.43
2023-01-18T21:05:47.905Z,6.28
2023-01-18T21:08:17.536Z,6.30
2023-01-18T21:10:45.022Z,7.13
2023-01-18T21:13:12.643Z,6.13
2023-01-18T21:15:42.090Z,7.07
2023-01-18T21:18:09.602Z,7.10
2023-01-18T21:20:37.199Z,6.13
2023-01-18T21:23:04.673Z,9.02
2023-01-18T21:25:32.093Z,7.75
2023-01-18T21:28:00.006Z,8.52
2023-01-18T21:30:27.652Z,13.95
2023-01-18T21:32:55.134Z,12.80
2023-01-18T21:35:22.578Z,14.30
2023-01-18T21:37:50.228Z,13.35
2023-01-18T21:40:17.738Z,12.27
2023-01-18T21:43:03.962Z,13.52
2023-01-18T21:45:49.990Z,13.60
2023-01-18T21:48:18.300Z,13.70
2023-01-18T21:51:04.366Z,9.57
2023-01-18T21:53:50.721Z,11.15
2023-01-18T21:56:20.379Z,13.23
2023-01-18T21:58:54.509Z,7.88
2023-01-18T22:01:23.087Z,10.38
2023-01-18T22:04:12.591Z,11.40
2023-01-18T22:09:08.391Z,10.68
2023-01-18T22:11:36.186Z,6.95
2023-01-18T22:14:04.377Z,6.93
2023-01-18T22:16:32.251Z,5.45
2023-01-18T22:19:01.613Z,6.97
2023-01-18T22:21:32.849Z,6.28
2023-01-18T22:24:00.358Z,7.40
2023-01-18T22:26:28.939Z,7.30
2023-01-18T22:28:56.539Z,5.50
2023-01-18T22:31:24.309Z,6.18
2023-01-18T22:33:51.822Z,8.45
2023-01-18T22:36:19.403Z,9.15
2023-01-18T22:38:47.266Z,11.30
2023-01-18T22:41:15.905Z,12.25
2023-01-18T22:43:43.798Z,12.50
2023-01-18T22:46:14.905Z,13.00
2023-01-18T22:48:42.578Z,12.80
2023-01-18T22:51:11.242Z,21.38
2023-01-18T22:53:38.807Z,22.58
2023-01-18T22:56:10.880Z,18.58
2023-01-18T22:58:38.498Z,13.52
2023-01-18T23:01:12.658Z,9.38
2023-01-18T23:03:41.589Z,9.02
2023-01-18T23:06:09.416Z,10.33
2023-01-18T23:08:42.686Z,11.85
2023-01-18T23:11:10.722Z,10.73
2023-01-18T23:13:38.803Z,10.15
2023-01-18T23:16:25.725Z,11.18
2023-01-18T23:18:53.216Z,16.75
2023-01-18T23:21:20.731Z,29.58
2023-01-18T23:23:48.240Z,26.60
2023-01-18T23:26:15.769Z,24.17
2023-01-18T23:28:45.170Z,22.83
2023-01-18T23:31:13.715Z,17.27
2023-01-18T23:33:41.256Z,17.20
2023-01-18T23:36:09.328Z,15.55
2023-01-18T23:38:55.564Z,20.65
2023-01-18T23:41:41.982Z,22.15
2023-01-18T23:44:28.078Z,18.63
2023-01-18T23:47:14.434Z,17.90
2023-01-18T23:50:00.726Z,11.90
2023-01-18T23:52:46.887Z,8.02
2023-01-18T23:55:14.477Z,8.07
2023-01-18T23:57:42.001Z,11.10
